Time;durP1;ratioP1;P1;durP2;ratioP2;P2;SDS_P1;SDS_P2;PMS_P1;PMS_P2;Temp;Humidity;BMP_temperature;BMP_pressure;BME280_temperature;BME280_humidity;BME280_pressure;Samples;Min_cycle;Max_cycle;Signal;HPM_P1;HPM_P2
2023/08/16 00:01:02;;;;;;;10.33;9.53;;;19.80;99.90;;;;;;5073169;28;20284;-77
2023/08/16 00:03:29;;;;;;;10.53;9.63;;;19.80;99.90;;;;;;5073428;28;20240;-77
2023/08/16 00:05:56;;;;;;;10.40;9.60;;;19.70;99.90;;;;;;5072268;28;20225;-78
2023/08/16 00:08:23;;;;;;;10.70;9.90;;;19.70;99.90;;;;;;5079514;28;20251;-77
2023/08/16 00:10:50;;;;;;;10.30;9.50;;;19.70;99.90;;;;;;5075427;28;20637;-77
2023/08/16 00:13:17;;;;;;;11.27;10.47;;;19.70;99.90;;;;;;5073231;28;20663;-77
2023/08/16 00:15:44;;;;;;;11.03;10.10;;;19.70;99.90;;;;;;5100609;22;20603;-76
2023/08/16 00:18:13;;;;;;;11.40;10.43;;;19.60;99.90;;;;;;5069915;28;20201;-77
2023/08/16 00:20:39;;;;;;;10.90;10.00;;;19.60;99.90;;;;;;5055515;28;20206;-77
2023/08/16 00:23:06;;;;;;;11.53;10.63;;;19.60;99.90;;;;;;5059740;28;20195;-77
2023/08/16 00:25:33;;;;;;;11.37;10.47;;;19.60;99.90;;;;;;5069268;28;20253;-77
2023/08/16 00:28:00;;;;;;;11.23;10.43;;;19.60;99.90;;;;;;5048964;28;20227;-77
2023/08/16 00:30:26;;;;;;;10.60;9.73;;;19.50;99.90;;;;;;5049272;28;20212;-77
2023/08/16 00:32:53;;;;;;;11.60;10.50;;;19.50;99.90;;;;;;5044352;28;20595;-76
2023/08/16 00:35:21;;;;;;;10.40;9.60;;;19.50;99.90;;;;;;5047829;28;20222;-77
2023/08/16 00:37:49;;;;;;;11.03;10.23;;;19.50;99.90;;;;;;5043092;28;20197;-77
2023/08/16 00:40:16;;;;;;;11.37;10.43;;;19.50;99.90;;;;;;5068690;28;20672;-77
2023/08/16 00:42:43;;;;;;;11.33;10.53;;;19.50;99.90;;;;;;5044427;28;20618;-77
2023/08/16 00:45:11;;;;;;;11.37;10.37;;;19.50;99.90;;;;;;5051808;28;20223;-77
2023/08/16 00:47:37;;;;;;;10.70;9.90;;;19.50;99.90;;;;;;5049741;28;20218;-77
2023/08/16 00:50:06;;;;;;;10.80;10.00;;;19.50;99.90;;;;;;5045433;28;20201;-76
2023/08/16 00:52:34;;;;;;;10.97;10.17;;;19.50;99.90;;;;;;5051306;28;20202;-76
2023/08/16 00:55:03;;;;;;;10.50;9.60;;;19.50;99.90;;;;;;5041658;28;20224;-77
2023/08/16 00:57:30;;;;;;;11.10;10.23;;;19.60;99.90;;;;;;5043181;28;20237;-77
2023/08/16 00:59:57;;;;;;;11.20;10.40;;;19.50;99.90;;;;;;5051027;28;20194;-76
2023/08/16 01:02:24;;;;;;;11.20;10.40;;;19.50;99.90;;;;;;5045615;28;20226;-77
2023/08/16 01:04:51;;;;;;;10.90;10.00;;;19.50;99.90;;;;;;5047536;28;20813;-76
2023/08/16 01:07:18;;;;;;;11.00;10.20;;;19.50;99.90;;;;;;5044684;28;20214;-77
2023/08/16 01:09:47;;;;;;;11.60;10.70;;;19.50;99.90;;;;;;5045989;28;20280;-77
2023/08/16 01:12:23;;;;;;;11.00;10.23;;;19.40;99.90;;;;;;5044626;28;20202;-76
2023/08/16 01:14:54;;;;;;;11.20;10.40;;;19.40;99.90;;;;;;5042771;28;20233;-77
2023/08/16 01:17:23;;;;;;;10.83;10.03;;;19.40;99.90;;;;;;5051005;28;20205;-76
2023/08/16 01:19:53;;;;;;;11.33;10.53;;;19.40;99.90;;;;;;5043938;28;20192;-77
2023/08/16 01:22:33;;;;;;;11.17;10.37;;;19.40;99.90;;;;;;5047295;28;20198;-76
2023/08/16 01:25:10;;;;;;;11.37;10.40;;;19.30;99.90;;;;;;5047972;28;20662;-77
2023/08/16 01:27:38;;;;;;;11.23;10.43;;;19.30;99.90;;;;;;5051966;28;20248;-77
2023/08/16 01:30:06;;;;;;;11.60;10.80;;;19.30;99.90;;;;;;5050930;28;20202;-77
2023/08/16 01:32:34;;;;;;;12.03;11.10;;;19.30;99.90;;;;;;5050202;28;20687;-76
2023/08/16 01:35:01;;;;;;;11.37;10.43;;;19.20;99.90;;;;;;5056697;28;20317;-76
2023/08/16 01:37:28;;;;;;;10.97;10.20;;;19.20;99.90;;;;;;5042742;28;20206;-77
2023/08/16 01:40:00;;;;;;;11.17;10.37;;;19.20;99.90;;;;;;5043984;28;20199;-76
2023/08/16 01:42:28;;;;;;;11.77;10.97;;;19.20;99.90;;;;;;5037435;28;20206;-76
2023/08/16 01:45:00;;;;;;;12.17;11.17;;;19.10;99.90;;;;;;5054154;28;20230;-77
2023/08/16 01:47:28;;;;;;;11.87;10.97;;;19.10;99.90;;;;;;5049366;28;20219;-76
2023/08/16 01:49:56;;;;;;;12.30;11.40;;;19.10;99.90;;;;;;5046061;28;20656;-77
2023/08/16 01:52:25;;;;;;;11.77;10.87;;;19.10;99.90;;;;;;5044462;28;20198;-77
2023/08/16 01:54:52;;;;;;;12.00;11.00;;;19.00;99.90;;;;;;5043357;28;20715;-77
2023/08/16 01:57:20;;;;;;;12.00;11.10;;;19.00;99.90;;;;;;5046149;28;20189;-76
2023/08/16 01:59:47;;;;;;;12.93;11.63;;;18.90;99.90;;;;;;5042258;28;20703;-76
2023/08/16 02:02:15;;;;;;;12.27;11.27;;;18.90;99.90;;;;;;5067190;28;20197;-77
2023/08/16 02:04:42;;;;;;;12.17;11.27;;;18.90;99.90;;;;;;5043491;28;20210;-77
2023/08/16 02:07:08;;;;;;;12.80;11.80;;;18.90;99.90;;;;;;5046533;28;20282;-77
2023/08/16 02:09:35;;;;;;;12.40;11.50;;;18.90;99.90;;;;;;5046490;28;20198;-77
2023/08/16 02:12:02;;;;;;;12.17;11.23;;;18.90;99.90;;;;;;5041965;28;20683;-77
2023/08/16 02:14:29;;;;;;;12.17;11.27;;;18.80;99.90;;;;;;5045777;28;20864;-77
2023/08/16 02:16:56;;;;;;;12.87;11.77;;;18.80;99.90;;;;;;5050771;28;20206;-77
2023/08/16 02:19:24;;;;;;;12.23;11.43;;;18.80;99.90;;;;;;5045311;28;20664;-77
2023/08/16 02:21:50;;;;;;;12.70;11.53;;;18.70;99.90;;;;;;5045895;28;20202;-77
2023/08/16 02:24:18;;;;;;;12.20;11.30;;;18.70;99.90;;;;;;5049185;28;20337;-76
2023/08/16 02:26:44;;;;;;;12.00;11.17;;;18.70;99.90;;;;;;5051064;28;20203;-77
2023/08/16 02:29:11;;;;;;;12.40;11.37;;;18.70;99.90;;;;;;5046547;28;20279;-77
2023/08/16 02:31:38;;;;;;;12.70;11.80;;;18.60;99.90;;;;;;5049196;28;20196;-77
2023/08/16 02:34:05;;;;;;;12.13;11.10;;;18.60;99.90;;;;;;5045631;28;20211;-76
2023/08/16 02:36:33;;;;;;;11.30;10.50;;;18.60;99.90;;;;;;5045909;28;20629;-77
2023/08/16 02:39:00;;;;;;;12.20;11.10;;;18.60;99.90;;;;;;5047066;28;20189;-76
2023/08/16 02:41:27;;;;;;;12.20;11.17;;;18.50;99.90;;;;;;5048343;28;20195;-77
2023/08/16 02:43:54;;;;;;;12.43;11.43;;;18.50;99.90;;;;;;5051901;28;20202;-76
2023/08/16 02:46:21;;;;;;;12.20;11.40;;;18.50;99.90;;;;;;5047071;28;20194;-76
2023/08/16 02:48:48;;;;;;;12.03;11.17;;;18.50;99.90;;;;;;5051123;28;20226;-76
2023/08/16 02:51:15;;;;;;;12.00;11.20;;;18.50;99.90;;;;;;5046257;28;20201;-76
2023/08/16 02:53:43;;;;;;;12.47;11.60;;;18.50;99.90;;;;;;5045287;28;20586;-77
2023/08/16 02:56:10;;;;;;;12.00;11.20;;;18.50;99.90;;;;;;5041376;28;20319;-77
2023/08/16 02:58:37;;;;;;;11.97;11.17;;;18.40;99.90;;;;;;5045609;28;20196;-76
2023/08/16 03:01:04;;;;;;;12.60;11.80;;;18.40;99.90;;;;;;5051342;28;20199;-77
2023/08/16 03:03:30;;;;;;;12.10;11.30;;;18.40;99.90;;;;;;5047575;28;20198;-77
2023/08/16 03:05:57;;;;;;;12.10;11.30;;;18.40;99.90;;;;;;5050420;28;20222;-77
2023/08/16 03:08:24;;;;;;;12.50;11.70;;;18.30;99.90;;;;;;5047090;28;20227;-75
2023/08/16 03:10:52;;;;;;;12.30;11.30;;;18.40;99.90;;;;;;5052945;28;20248;-76
2023/08/16 03:13:19;;;;;;;12.27;11.47;;;18.30;99.90;;;;;;5046066;28;20189;-77
2023/08/16 03:15:46;;;;;;;12.37;11.47;;;18.30;99.90;;;;;;5053603;28;20231;-77
2023/08/16 03:18:13;;;;;;;11.93;11.13;;;18.30;99.90;;;;;;5045137;28;20193;-77
2023/08/16 03:20:40;;;;;;;11.80;11.00;;;18.30;99.90;;;;;;5049072;28;20214;-76
2023/08/16 03:23:09;;;;;;;12.27;11.47;;;18.20;99.90;;;;;;5047999;28;20202;-78
2023/08/16 03:25:36;;;;;;;12.23;11.30;;;18.30;99.90;;;;;;5048801;28;20225;-75
2023/08/16 03:28:05;;;;;;;12.77;11.87;;;18.20;99.90;;;;;;5050176;28;20215;-76
2023/08/16 03:30:32;;;;;;;14.20;13.20;;;18.20;99.90;;;;;;5048226;28;20223;-78
2023/08/16 03:32:59;;;;;;;12.87;11.93;;;18.20;99.90;;;;;;5059686;28;20207;-82
2023/08/16 03:35:26;;;;;;;12.73;11.90;;;18.10;99.90;;;;;;5059738;28;20300;-83
2023/08/16 03:37:53;;;;;;;13.10;12.00;;;18.10;99.90;;;;;;5045942;28;20670;-82
2023/08/16 03:40:20;;;;;;;13.17;11.90;;;18.10;99.90;;;;;;5056992;28;20210;-83
2023/08/16 03:42:47;;;;;;;13.90;13.00;;;18.00;99.90;;;;;;5055116;28;20196;-82
2023/08/16 03:45:15;;;;;;;14.00;13.00;;;18.00;99.90;;;;;;5053289;28;20221;-81
2023/08/16 03:47:43;;;;;;;12.93;12.13;;;18.00;99.90;;;;;;5053145;28;20203;-81
2023/08/16 03:50:10;;;;;;;14.20;13.30;;;18.00;99.90;;;;;;5054389;28;20274;-81
2023/08/16 03:52:37;;;;;;;13.40;12.50;;;18.00;99.90;;;;;;5057330;28;20199;-82
2023/08/16 03:55:06;;;;;;;13.43;12.40;;;18.00;99.90;;;;;;5052929;28;20284;-82
2023/08/16 03:57:33;;;;;;;13.20;12.30;;;18.00;99.90;;;;;;5055571;28;20197;-81
2023/08/16 04:00:00;;;;;;;14.43;13.43;;;18.00;99.90;;;;;;5053656;28;20208;-82
2023/08/16 04:02:30;;;;;;;13.43;12.53;;;18.00;99.90;;;;;;5055468;28;20197;-80
2023/08/16 04:05:09;;;;;;;13.30;12.33;;;18.00;99.90;;;;;;5057629;28;20278;-81
2023/08/16 04:07:36;;;;;;;13.80;12.80;;;18.00;99.90;;;;;;5054358;28;20681;-80
2023/08/16 04:10:03;;;;;;;13.63;12.63;;;18.00;99.90;;;;;;5056055;28;20293;-81
2023/08/16 04:12:30;;;;;;;14.20;13.20;;;18.10;99.90;;;;;;5054220;28;20200;-81
2023/08/16 04:14:57;;;;;;;14.17;13.27;;;18.00;99.90;;;;;;5052128;28;20231;-83
2023/08/16 04:17:24;;;;;;;14.20;13.20;;;18.00;99.90;;;;;;5057936;28;20223;-82
2023/08/16 04:19:52;;;;;;;14.63;13.73;;;18.00;99.90;;;;;;5058660;28;20259;-81
2023/08/16 04:22:19;;;;;;;15.13;14.03;;;18.00;99.90;;;;;;5053757;28;20195;-82
2023/08/16 04:24:46;;;;;;;13.87;12.97;;;18.00;99.90;;;;;;5050422;28;20651;-83
2023/08/16 04:27:12;;;;;;;14.67;13.60;;;18.10;99.90;;;;;;5053657;28;20202;-81
2023/08/16 04:29:40;;;;;;;14.83;13.83;;;18.10;99.90;;;;;;5055139;28;20230;-81
2023/08/16 04:32:07;;;;;;;14.40;13.40;;;18.10;99.90;;;;;;5057454;28;20196;-82
2023/08/16 04:34:35;;;;;;;14.17;13.27;;;18.20;99.90;;;;;;5049737;28;20218;-82
2023/08/16 04:37:03;;;;;;;13.97;12.97;;;18.20;99.90;;;;;;5053689;28;20200;-82
2023/08/16 04:39:30;;;;;;;13.37;12.47;;;18.20;99.90;;;;;;5053667;28;20859;-80
2023/08/16 04:41:57;;;;;;;13.50;12.60;;;18.20;99.90;;;;;;5048498;28;20200;-80
2023/08/16 04:44:23;;;;;;;14.30;13.40;;;18.30;99.90;;;;;;5051444;28;20762;-79
2023/08/16 04:46:51;;;;;;;14.90;13.87;;;18.30;99.90;;;;;;5053655;28;20220;-81
2023/08/16 04:49:18;;;;;;;13.97;13.07;;;18.30;99.90;;;;;;5055021;28;20220;-80
2023/08/16 04:51:45;;;;;;;15.03;13.93;;;18.30;99.90;;;;;;5055280;28;20280;-81
2023/08/16 04:54:13;;;;;;;15.60;14.50;;;18.30;99.90;;;;;;5056512;28;20224;-81
2023/08/16 04:56:40;;;;;;;14.63;13.63;;;18.40;99.90;;;;;;5050036;28;20201;-80
2023/08/16 04:59:07;;;;;;;15.23;14.20;;;18.40;99.90;;;;;;5050252;28;20193;-81
2023/08/16 05:01:35;;;;;;;14.83;13.83;;;18.40;99.90;;;;;;5053225;28;20253;-78
2023/08/16 05:04:03;;;;;;;14.17;13.17;;;18.50;99.90;;;;;;5049741;28;20204;-80
2023/08/16 05:06:30;;;;;;;14.20;13.30;;;18.50;99.90;;;;;;5047079;28;20415;-80
2023/08/16 05:08:57;;;;;;;15.20;14.20;;;18.60;99.90;;;;;;5044565;28;20222;-80
2023/08/16 05:11:26;;;;;;;14.87;13.87;;;18.60;99.90;;;;;;5065876;28;20683;-81
2023/08/16 05:13:53;;;;;;;14.93;13.93;;;18.70;99.90;;;;;;5049386;28;20198;-80
2023/08/16 05:16:19;;;;;;;14.50;13.50;;;18.80;99.90;;;;;;5048814;28;20732;-80
2023/08/16 05:18:46;;;;;;;14.33;13.43;;;19.00;99.90;;;;;;5053272;28;20382;-79
2023/08/16 05:21:14;;;;;;;14.43;13.53;;;19.10;99.90;;;;;;5053066;28;20683;-81
2023/08/16 05:23:41;;;;;;;13.60;12.67;;;19.30;99.90;;;;;;5052911;28;20288;-81
2023/08/16 05:26:08;;;;;;;14.20;13.30;;;19.40;99.90;;;;;;5054569;28;20218;-81
2023/08/16 05:28:36;;;;;;;13.67;12.77;;;19.50;99.90;;;;;;5053057;28;20244;-81
2023/08/16 05:31:09;;;;;;;14.23;13.33;;;19.60;99.90;;;;;;5052785;28;20580;-82
2023/08/16 05:33:36;;;;;;;13.97;13.00;;;19.80;99.90;;;;;;5047644;28;20778;-81
2023/08/16 05:36:04;;;;;;;14.80;13.73;;;20.00;99.90;;;;;;5051991;28;20222;-82
2023/08/16 05:38:31;;;;;;;14.13;13.23;;;20.20;99.90;;;;;;5055983;28;20253;-78
2023/08/16 05:40:58;;;;;;;14.20;13.30;;;20.30;99.90;;;;;;5048777;28;20662;-81
2023/08/16 05:43:25;;;;;;;13.37;12.47;;;20.40;99.90;;;;;;5048675;28;20195;-80
2023/08/16 05:45:54;;;;;;;13.80;12.80;;;20.60;99.90;;;;;;5049413;28;20215;-80
2023/08/16 05:48:21;;;;;;;12.90;12.00;;;20.70;99.90;;;;;;5051785;28;20596;-82
2023/08/16 05:50:47;;;;;;;7.40;6.80;;;20.90;99.90;;;;;;5049548;28;20265;-82
2023/08/16 05:53:14;;;;;;;9.77;6.13;;;21.10;99.90;;;;;;5049709;28;20249;-80
2023/08/16 05:55:41;;;;;;;6.27;5.70;;;21.10;99.90;;;;;;5054808;28;20752;-81
2023/08/16 05:58:08;;;;;;;8.90;8.10;;;21.20;99.90;;;;;;5050501;28;20677;-78
2023/08/16 06:00:35;;;;;;;10.73;9.73;;;21.30;99.90;;;;;;5050356;28;20187;-77
2023/08/16 06:03:03;;;;;;;8.57;7.87;;;21.40;99.90;;;;;;5050491;28;20253;-78
2023/08/16 06:05:31;;;;;;;14.20;13.10;;;21.40;99.90;;;;;;5050119;28;20341;-77
2023/08/16 06:07:58;;;;;;;12.33;11.43;;;21.60;99.90;;;;;;5050048;28;20294;-78
2023/08/16 06:10:25;;;;;;;6.20;5.60;;;21.70;99.90;;;;;;5049631;28;20713;-78
2023/08/16 06:12:52;;;;;;;7.13;6.43;;;21.70;99.90;;;;;;5049829;28;20215;-78
2023/08/16 06:15:19;;;;;;;5.80;5.30;;;21.70;99.90;;;;;;5051575;28;20749;-77
2023/08/16 06:17:46;;;;;;;11.70;10.90;;;21.90;99.90;;;;;;5056070;28;20248;-78
2023/08/16 06:20:14;;;;;;;11.27;10.47;;;22.00;99.90;;;;;;5051393;28;20192;-77
2023/08/16 06:22:41;;;;;;;11.47;10.70;;;22.10;99.90;;;;;;5048523;28;20206;-77
2023/08/16 06:25:09;;;;;;;10.40;9.57;;;22.10;99.90;;;;;;5048235;28;20234;-76
2023/08/16 06:27:36;;;;;;;10.43;9.70;;;22.30;99.90;;;;;;5042843;28;20581;-77
2023/08/16 06:30:03;;;;;;;10.27;9.33;;;22.40;99.90;;;;;;5050263;28;20222;-77
2023/08/16 06:32:30;;;;;;;11.90;11.10;;;22.40;99.90;;;;;;5049799;28;20199;-76
2023/08/16 06:34:57;;;;;;;12.80;11.80;;;22.50;99.90;;;;;;5050219;28;20219;-78
2023/08/16 06:37:25;;;;;;;13.57;12.57;;;22.40;99.90;;;;;;5048609;28;20603;-78
2023/08/16 06:39:52;;;;;;;13.50;12.30;;;22.50;99.90;;;;;;5050775;28;20191;-77
2023/08/16 06:42:19;;;;;;;11.80;10.90;;;22.40;99.90;;;;;;5048386;28;20669;-76
2023/08/16 06:44:46;;;;;;;10.03;9.23;;;22.40;99.90;;;;;;5049249;28;20752;-78
2023/08/16 06:47:12;;;;;;;10.57;9.60;;;22.50;99.90;;;;;;5047645;28;20231;-79
2023/08/16 06:49:39;;;;;;;11.73;10.80;;;22.60;99.90;;;;;;5050127;28;20245;-80
2023/08/16 06:52:06;;;;;;;12.50;11.60;;;22.70;99.90;;;;;;5054469;28;20850;-80
2023/08/16 06:54:35;;;;;;;12.53;11.63;;;22.80;99.90;;;;;;5048075;28;20787;-80
2023/08/16 06:57:01;;;;;;;9.30;8.50;;;22.90;99.90;;;;;;5060684;28;20206;-79
2023/08/16 06:59:29;;;;;;;11.87;10.97;;;23.00;99.90;;;;;;5048176;28;20238;-80
2023/08/16 07:01:57;;;;;;;7.93;6.23;;;23.10;99.90;;;;;;5056173;28;20360;-80
2023/08/16 07:04:24;;;;;;;7.77;6.97;;;23.20;99.90;;;;;;5048233;28;20294;-78
2023/08/16 07:06:50;;;;;;;9.37;8.47;;;23.30;99.90;;;;;;5047835;28;20203;-77
2023/08/16 07:09:17;;;;;;;8.07;6.40;;;23.30;99.90;;;;;;5053991;28;20220;-78
2023/08/16 07:11:45;;;;;;;9.43;8.53;;;23.40;99.90;;;;;;5055135;28;20194;-77
2023/08/16 07:14:12;;;;;;;10.13;9.23;;;23.40;99.90;;;;;;5055836;28;20219;-79
2023/08/16 07:16:39;;;;;;;13.53;12.53;;;23.50;99.90;;;;;;5057263;28;20607;-79
2023/08/16 07:19:08;;;;;;;10.40;9.40;;;23.70;99.90;;;;;;5055087;28;20561;-78
2023/08/16 07:21:35;;;;;;;11.47;10.47;;;23.80;99.90;;;;;;5052432;28;20623;-78
2023/08/16 07:24:02;;;;;;;7.40;6.60;;;24.00;99.90;;;;;;5060793;28;20669;-79
2023/08/16 07:26:29;;;;;;;13.13;12.23;;;24.20;99.90;;;;;;5059688;28;20210;-77
2023/08/16 07:28:57;;;;;;;13.13;12.23;;;24.60;99.90;;;;;;5059455;28;20199;-78
2023/08/16 07:31:24;;;;;;;11.00;10.20;;;24.80;99.90;;;;;;5060549;28;20187;-78
2023/08/16 07:33:51;;;;;;;14.33;13.13;;;24.80;99.90;;;;;;5060047;28;20195;-78
2023/08/16 07:36:18;;;;;;;13.07;12.07;;;25.20;99.90;;;;;;5058925;28;20249;-78
2023/08/16 07:38:46;;;;;;;13.60;12.60;;;25.50;99.90;;;;;;5061021;28;20187;-79
2023/08/16 07:41:13;;;;;;;12.23;11.33;;;25.30;99.90;;;;;;5059437;28;20207;-77
2023/08/16 07:43:40;;;;;;;11.07;10.07;;;25.30;99.90;;;;;;5059362;28;20614;-79
2023/08/16 07:46:08;;;;;;;11.10;10.20;;;25.20;99.90;;;;;;5060345;28;20754;-84
2023/08/16 07:48:35;;;;;;;9.07;8.37;;;25.00;99.90;;;;;;5074628;28;20260;-83
2023/08/16 07:51:02;;;;;;;7.70;6.43;;;24.80;99.90;;;;;;5060036;28;20320;-82
2023/08/16 07:53:28;;;;;;;7.53;6.27;;;24.80;99.90;;;;;;5058739;28;20188;-81
2023/08/16 07:55:56;;;;;;;8.73;6.20;;;24.60;99.90;;;;;;5059051;28;20219;-82
2023/08/16 07:58:23;;;;;;;7.07;5.40;;;24.70;99.90;;;;;;5058846;28;20195;-83
2023/08/16 08:00:53;;;;;;;9.47;5.93;;;24.70;99.90;;;;;;5053118;28;20199;-83
2023/08/16 08:03:22;;;;;;;6.93;6.23;;;25.00;99.90;;;;;;5050382;28;20239;-83
2023/08/16 08:05:49;;;;;;;6.40;5.80;;;25.20;99.90;;;;;;5050206;28;20264;-82
2023/08/16 08:08:15;;;;;;;7.83;6.07;;;25.60;99.90;;;;;;5053153;28;20192;-82
2023/08/16 08:10:44;;;;;;;7.13;6.23;;;25.80;99.90;;;;;;5054157;28;20224;-83
2023/08/16 08:13:11;;;;;;;7.60;6.83;;;25.90;99.90;;;;;;5055687;28;20468;-82
2023/08/16 08:15:37;;;;;;;7.63;6.40;;;25.90;99.90;;;;;;5054549;28;20288;-83
2023/08/16 08:18:05;;;;;;;11.43;10.33;;;26.10;99.90;;;;;;5050518;28;20227;-81
2023/08/16 08:20:33;;;;;;;7.50;6.33;;;26.50;99.90;;;;;;5053750;28;20294;-81
2023/08/16 08:23:00;;;;;;;10.80;6.90;;;26.80;99.90;;;;;;5049995;28;20237;-81
2023/08/16 08:25:27;;;;;;;11.13;10.23;;;27.00;99.90;;;;;;5052319;28;20750;-82
2023/08/16 08:27:54;;;;;;;11.40;10.53;;;27.50;99.90;;;;;;5044738;28;20192;-82
2023/08/16 08:30:21;;;;;;;13.20;12.10;;;27.80;99.90;;;;;;5054914;28;20226;-82
2023/08/16 08:32:48;;;;;;;11.40;10.47;;;28.20;99.90;;;;;;5064924;28;20191;-81
2023/08/16 08:35:15;;;;;;;11.97;11.07;;;28.40;99.90;;;;;;5059493;28;20215;-82
2023/08/16 08:37:43;;;;;;;13.37;12.23;;;28.60;99.90;;;;;;5050240;28;20200;-81
2023/08/16 08:40:10;;;;;;;12.67;11.57;;;28.50;99.90;;;;;;5053317;28;20615;-81
2023/08/16 08:42:40;;;;;;;11.60;10.80;;;28.20;99.90;;;;;;5045218;28;20589;-81
2023/08/16 08:45:08;;;;;;;12.60;11.33;;;27.50;99.90;;;;;;5042781;28;20223;-80
2023/08/16 08:47:35;;;;;;;13.17;12.23;;;27.20;99.90;;;;;;5054857;28;20203;-79
2023/08/16 08:50:03;;;;;;;12.20;11.27;;;27.40;99.90;;;;;;5056212;28;20245;-79
2023/08/16 08:52:32;;;;;;;13.73;12.50;;;27.50;99.90;;;;;;5049673;28;20567;-78
2023/08/16 08:55:00;;;;;;;12.60;11.70;;;27.30;99.90;;;;;;5053405;28;20227;-79
2023/08/16 08:57:29;;;;;;;12.37;11.27;;;27.40;99.90;;;;;;5050536;28;20210;-80
2023/08/16 08:59:58;;;;;;;9.70;8.90;;;27.60;99.90;;;;;;5056794;28;20199;-79
2023/08/16 09:02:26;;;;;;;10.03;9.13;;;28.00;99.90;;;;;;5055702;28;20709;-79
2023/08/16 09:04:59;;;;;;;10.30;9.50;;;28.50;99.90;;;;;;5051090;28;20292;-80
2023/08/16 09:07:27;;;;;;;11.20;10.40;;;29.00;99.90;;;;;;5056550;28;20705;-80
2023/08/16 09:09:54;;;;;;;10.57;9.77;;;29.30;99.90;;;;;;5051694;28;20214;-80
2023/08/16 09:12:22;;;;;;;11.80;10.90;;;29.40;99.90;;;;;;5050194;28;20257;-79
2023/08/16 09:14:49;;;;;;;11.30;10.40;;;29.10;99.90;;;;;;5050375;28;20277;-79
2023/08/16 09:17:16;;;;;;;10.40;9.60;;;29.20;99.90;;;;;;5053026;28;20203;-80
2023/08/16 09:19:46;;;;;;;12.73;11.63;;;29.40;99.90;;;;;;5048612;28;20244;-80
2023/08/16 09:22:14;;;;;;;13.30;12.20;;;29.80;99.90;;;;;;5049048;28;20204;-79
2023/08/16 09:24:42;;;;;;;12.50;11.53;;;29.70;99.90;;;;;;5049369;28;20258;-79
2023/08/16 09:27:09;;;;;;;12.33;11.33;;;29.50;99.90;;;;;;5050661;28;20685;-79
2023/08/16 09:29:40;;;;;;;11.10;10.10;;;29.60;99.90;;;;;;5053182;28;20234;-80
2023/08/16 09:32:07;;;;;;;12.20;11.10;;;29.50;99.90;;;;;;5051683;28;20295;-81
2023/08/16 09:34:35;;;;;;;11.37;10.40;;;29.80;99.90;;;;;;5048958;28;20303;-80
2023/08/16 09:37:03;;;;;;;10.23;9.33;;;29.80;99.90;;;;;;5057376;28;20268;-80
2023/08/16 09:39:29;;;;;;;10.03;9.13;;;30.10;99.90;;;;;;5050688;28;20294;-80
2023/08/16 09:41:57;;;;;;;12.13;11.23;;;29.90;99.90;;;;;;5053240;28;20234;-82
2023/08/16 09:44:29;;;;;;;10.47;9.60;;;30.00;99.90;;;;;;5054812;28;20215;-80
2023/08/16 09:46:58;;;;;;;10.67;9.67;;;30.10;99.90;;;;;;5049934;28;20204;-83
2023/08/16 09:49:25;;;;;;;10.60;9.60;;;30.50;99.90;;;;;;5052463;28;20206;-82
2023/08/16 09:51:52;;;;;;;12.30;11.20;;;30.10;99.90;;;;;;5055676;28;20223;-81
2023/08/16 09:54:19;;;;;;;12.50;11.37;;;30.00;99.90;;;;;;5055374;28;20276;-80
2023/08/16 09:56:47;;;;;;;12.10;11.10;;;30.00;99.90;;;;;;5046754;28;20199;-80
2023/08/16 09:59:15;;;;;;;13.33;11.33;;;30.10;99.90;;;;;;5058298;28;20195;-83
2023/08/16 10:01:42;;;;;;;11.20;10.23;;;30.20;99.90;;;;;;5045786;28;20678;-82
2023/08/16 10:04:11;;;;;;;10.90;9.90;;;30.10;99.90;;;;;;5056815;28;20678;-81
2023/08/16 10:06:38;;;;;;;11.97;10.93;;;30.30;99.90;;;;;;5055060;28;20203;-82
2023/08/16 10:09:09;;;;;;;13.40;12.40;;;30.70;99.90;;;;;;5056002;28;20629;-82
2023/08/16 10:11:37;;;;;;;12.90;11.80;;;31.10;99.90;;;;;;5050562;28;20243;-82
2023/08/16 10:14:07;;;;;;;11.90;11.00;;;30.80;99.90;;;;;;5053733;28;20210;-83
2023/08/16 10:16:36;;;;;;;11.80;10.90;;;31.00;99.90;;;;;;5050536;28;20282;-82
2023/08/16 10:19:03;;;;;;;11.57;10.57;;;30.80;99.90;;;;;;5054023;28;20290;-83
2023/08/16 10:21:38;;;;;;;10.80;10.10;;;30.70;99.90;;;;;;5052346;28;20238;-82
2023/08/16 10:24:10;;;;;;;11.37;10.47;;;30.40;99.90;;;;;;5051786;28;20209;-82
2023/08/16 10:26:38;;;;;;;10.93;10.13;;;30.70;99.90;;;;;;5052314;28;20207;-79
2023/08/16 10:29:08;;;;;;;11.17;10.27;;;30.90;99.90;;;;;;5052782;28;20209;-83
2023/08/16 10:31:40;;;;;;;12.83;10.83;;;31.10;99.90;;;;;;5053265;28;20234;-83
2023/08/16 10:34:10;;;;;;;11.63;10.63;;;31.00;99.90;;;;;;5053152;28;20207;-82
2023/08/16 10:36:39;;;;;;;11.10;10.20;;;30.70;99.90;;;;;;5051015;28;20650;-82
2023/08/16 10:39:07;;;;;;;11.00;10.10;;;30.80;99.90;;;;;;5047177;28;20187;-82
2023/08/16 10:41:41;;;;;;;11.30;10.20;;;30.70;99.90;;;;;;5060933;28;20195;-82
2023/08/16 10:44:22;;;;;;;11.80;10.90;;;30.80;99.90;;;;;;5051654;28;20624;-84
2023/08/16 10:46:50;;;;;;;10.87;10.07;;;30.80;99.90;;;;;;5056137;28;20673;-83
2023/08/16 10:49:17;;;;;;;11.13;10.23;;;30.80;99.90;;;;;;5059707;28;20724;-82
2023/08/16 10:51:46;;;;;;;11.50;10.50;;;30.70;99.90;;;;;;5049842;28;20234;-81
2023/08/16 10:54:13;;;;;;;11.27;10.27;;;30.60;99.90;;;;;;5044142;28;20282;-83
2023/08/16 10:56:47;;;;;;;11.40;10.40;;;30.20;99.90;;;;;;5054150;28;20195;-83
2023/08/16 10:59:14;;;;;;;10.53;9.83;;;30.30;99.90;;;;;;5053798;28;20274;-82
2023/08/16 11:01:46;;;;;;;10.80;9.90;;;30.20;99.90;;;;;;5049437;28;20245;-82
2023/08/16 11:04:13;;;;;;;10.40;9.70;;;30.50;99.90;;;;;;5041839;28;20231;-81
2023/08/16 11:06:40;;;;;;;10.63;9.83;;;30.40;99.90;;;;;;5048491;28;20226;-82
2023/08/16 11:09:13;;;;;;;11.40;10.40;;;30.50;99.90;;;;;;5044295;28;20215;-82
2023/08/16 11:11:45;;;;;;;10.80;9.90;;;30.40;99.90;;;;;;5044101;28;21267;-83
2023/08/16 11:14:12;;;;;;;10.40;9.70;;;30.10;99.90;;;;;;5055002;28;20603;-84
2023/08/16 11:16:39;;;;;;;10.90;10.13;;;30.10;99.90;;;;;;5054808;28;20195;-82
2023/08/16 11:19:08;;;;;;;10.83;9.93;;;30.00;99.90;;;;;;5054264;28;20676;-84
2023/08/16 11:21:38;;;;;;;9.50;8.57;;;30.00;99.90;;;;;;5050792;28;20200;-84
2023/08/16 11:24:06;;;;;;;10.73;9.93;;;30.10;99.90;;;;;;5052556;28;20206;-83
2023/08/16 11:26:39;;;;;;;10.77;9.97;;;30.10;99.90;;;;;;5054839;28;20638;-83
2023/08/16 11:29:06;;;;;;;10.70;9.70;;;29.90;99.90;;;;;;5051396;28;20200;-82
2023/08/16 11:31:34;;;;;;;9.47;8.67;;;29.90;99.90;;;;;;5044496;28;20211;-82
2023/08/16 11:34:00;;;;;;;9.80;8.97;;;29.90;99.90;;;;;;5064494;28;20295;-83
2023/08/16 11:36:27;;;;;;;8.90;8.20;;;30.00;99.90;;;;;;5061073;28;20196;-82
2023/08/16 11:38:59;;;;;;;10.00;9.20;;;30.10;99.90;;;;;;5063100;28;20200;-84
2023/08/16 11:41:26;;;;;;;11.03;10.10;;;30.20;99.90;;;;;;5047560;28;20237;-83
2023/08/16 11:44:00;;;;;;;9.77;9.07;;;30.10;99.90;;;;;;5055033;28;20627;-83
2023/08/16 11:46:27;;;;;;;9.60;8.80;;;30.00;99.90;;;;;;5052967;28;20203;-82
2023/08/16 11:48:55;;;;;;;6.30;4.93;;;30.00;99.90;;;;;;5050591;28;20276;-83
2023/08/16 11:51:22;;;;;;;6.27;5.00;;;30.10;99.90;;;;;;5049719;28;20211;-82
2023/08/16 11:53:49;;;;;;;5.17;4.67;;;30.10;99.90;;;;;;5041768;28;20597;-83
2023/08/16 11:56:15;;;;;;;5.83;4.90;;;30.10;99.90;;;;;;5047153;28;20214;-83
2023/08/16 11:58:44;;;;;;;7.80;7.20;;;30.10;99.90;;;;;;5050054;28;20353;-83
2023/08/16 12:01:14;;;;;;;7.97;7.27;;;30.20;99.90;;;;;;5046811;28;20191;-82
2023/08/16 12:03:42;;;;;;;8.77;8.07;;;30.20;99.90;;;;;;5061383;28;20274;-83
2023/08/16 12:06:09;;;;;;;8.43;7.63;;;30.20;99.90;;;;;;5056340;28;20250;-83
2023/08/16 12:08:48;;;;;;;9.60;8.30;;;30.20;99.90;;;;;;5057012;28;20257;-84
2023/08/16 12:11:15;;;;;;;8.37;7.57;;;30.10;99.90;;;;;;5055412;28;20230;-83
2023/08/16 12:13:42;;;;;;;8.80;8.00;;;30.00;99.90;;;;;;5056657;28;20199;-84
2023/08/16 12:16:15;;;;;;;9.43;8.60;;;30.00;99.90;;;;;;5053063;28;20231;-83
2023/08/16 12:18:41;;;;;;;8.43;7.83;;;30.00;99.90;;;;;;5044662;28;20226;-82
2023/08/16 12:21:08;;;;;;;8.17;7.57;;;30.00;99.90;;;;;;5053947;28;20207;-83
2023/08/16 12:23:35;;;;;;;8.60;7.80;;;30.10;99.90;;;;;;5053426;28;20203;-83
2023/08/16 12:26:02;;;;;;;8.63;7.93;;;30.00;99.90;;;;;;5057590;22;20273;-83
2023/08/16 12:28:29;;;;;;;5.87;5.27;;;30.10;99.90;;;;;;5056260;28;20199;-82
2023/08/16 12:30:56;;;;;;;5.40;4.90;;;30.20;99.90;;;;;;5055378;28;20215;-81
2023/08/16 12:33:24;;;;;;;6.87;4.50;;;30.30;99.90;;;;;;5061401;28;20689;-79